sensor_id;sensor_type;location;lat;lon;timestamp;temperature;humidity
66928;DHT22;59882;45.624;11.698;2023-12-22T00:00:23;1.80;83.10
66928;DHT22;59882;45.624;11.698;2023-12-22T00:02:48;1.80;83.10
66928;DHT22;59882;45.624;11.698;2023-12-22T00:05:14;1.90;82.90
66928;DHT22;59882;45.624;11.698;2023-12-22T00:07:39;1.90;82.90
66928;DHT22;59882;45.624;11.698;2023-12-22T00:10:05;1.90;82.90
66928;DHT22;59882;45.624;11.698;2023-12-22T00:12:31;1.90;82.90
66928;DHT22;59882;45.624;11.698;2023-12-22T00:14:56;1.90;82.80
66928;DHT22;59882;45.624;11.698;2023-12-22T00:17:22;1.90;82.80
66928;DHT22;59882;45.624;11.698;2023-12-22T00:19:48;1.90;82.80
66928;DHT22;59882;45.624;11.698;2023-12-22T00:22:13;2.00;82.80
66928;DHT22;59882;45.624;11.698;2023-12-22T00:24:39;2.00;82.80
66928;DHT22;59882;45.624;11.698;2023-12-22T00:27:05;2.00;82.60
66928;DHT22;59882;45.624;11.698;2023-12-22T00:29:31;2.00;82.60
66928;DHT22;59882;45.624;11.698;2023-12-22T00:32:01;2.00;82.60
66928;DHT22;59882;45.624;11.698;2023-12-22T00:34:26;2.00;82.60
66928;DHT22;59882;45.624;11.698;2023-12-22T00:36:52;2.00;82.60
66928;DHT22;59882;45.624;11.698;2023-12-22T00:39:18;2.10;82.70
66928;DHT22;59882;45.624;11.698;2023-12-22T00:41:43;2.00;82.60
66928;DHT22;59882;45.624;11.698;2023-12-22T00:44:09;2.10;82.60
66928;DHT22;59882;45.624;11.698;2023-12-22T00:46:34;2.10;82.50
66928;DHT22;59882;45.624;11.698;2023-12-22T00:49:00;2.10;82.60
66928;DHT22;59882;45.624;11.698;2023-12-22T00:51:25;2.10;82.60
66928;DHT22;59882;45.624;11.698;2023-12-22T00:53:51;2.10;82.50
66928;DHT22;59882;45.624;11.698;2023-12-22T00:56:16;2.10;82.50
66928;DHT22;59882;45.624;11.698;2023-12-22T00:58:42;2.20;82.30
66928;DHT22;59882;45.624;11.698;2023-12-22T01:01:08;2.10;82.20
66928;DHT22;59882;45.624;11.698;2023-12-22T01:03:33;2.10;82.30
66928;DHT22;59882;45.624;11.698;2023-12-22T01:05:59;2.20;82.30
66928;DHT22;59882;45.624;11.698;2023-12-22T01:08:24;2.20;82.20
66928;DHT22;59882;45.624;11.698;2023-12-22T01:10:50;2.20;82.20
66928;DHT22;59882;45.624;11.698;2023-12-22T01:13:15;2.30;82.20
66928;DHT22;59882;45.624;11.698;2023-12-22T01:15:41;2.30;82.20
66928;DHT22;59882;45.624;11.698;2023-12-22T01:18:09;2.30;82.10
66928;DHT22;59882;45.624;11.698;2023-12-22T01:20:35;2.30;82.00
66928;DHT22;59882;45.624;11.698;2023-12-22T01:23:00;2.30;82.00
66928;DHT22;59882;45.624;11.698;2023-12-22T01:25:26;2.30;81.40
66928;DHT22;59882;45.624;11.698;2023-12-22T01:27:52;2.30;81.50
66928;DHT22;59882;45.624;11.698;2023-12-22T01:30:18;2.30;81.70
66928;DHT22;59882;45.624;11.698;2023-12-22T01:32:44;2.30;81.80
66928;DHT22;59882;45.624;11.698;2023-12-22T01:35:09;2.30;81.80
66928;DHT22;59882;45.624;11.698;2023-12-22T01:37:38;2.30;81.80
66928;DHT22;59882;45.624;11.698;2023-12-22T01:40:04;2.30;81.50
66928;DHT22;59882;45.624;11.698;2023-12-22T01:42:30;2.20;81.60
66928;DHT22;59882;45.624;11.698;2023-12-22T01:44:56;2.20;81.60
66928;DHT22;59882;45.624;11.698;2023-12-22T01:47:22;2.30;81.80
66928;DHT22;59882;45.624;11.698;2023-12-22T01:49:48;2.30;81.90
66928;DHT22;59882;45.624;11.698;2023-12-22T01:52:14;2.30;81.90
66928;DHT22;59882;45.624;11.698;2023-12-22T01:54:40;2.30;81.90
66928;DHT22;59882;45.624;11.698;2023-12-22T01:57:06;2.20;81.90
66928;DHT22;59882;45.624;11.698;2023-12-22T01:59:33;2.30;82.00
66928;DHT22;59882;45.624;11.698;2023-12-22T02:02:04;2.30;81.90
66928;DHT22;59882;45.624;11.698;2023-12-22T02:04:31;2.30;81.90
66928;DHT22;59882;45.624;11.698;2023-12-22T02:06:58;2.40;82.00
66928;DHT22;59882;45.624;11.698;2023-12-22T02:09:26;2.30;82.00
66928;DHT22;59882;45.624;11.698;2023-12-22T02:11:52;2.30;81.90
66928;DHT22;59882;45.624;11.698;2023-12-22T02:14:17;2.40;81.80
66928;DHT22;59882;45.624;11.698;2023-12-22T02:16:54;2.30;81.80
66928;DHT22;59882;45.624;11.698;2023-12-22T02:22:07;2.30;81.90
66928;DHT22;59882;45.624;11.698;2023-12-22T02:24:33;2.30;82.00
66928;DHT22;59882;45.624;11.698;2023-12-22T02:27:10;2.40;81.90
66928;DHT22;59882;45.624;11.698;2023-12-22T02:29:48;2.30;81.80
66928;DHT22;59882;45.624;11.698;2023-12-22T02:32:21;2.30;81.80
66928;DHT22;59882;45.624;11.698;2023-12-22T02:34:50;2.30;81.70
66928;DHT22;59882;45.624;11.698;2023-12-22T02:37:17;2.20;81.70
66928;DHT22;59882;45.624;11.698;2023-12-22T02:39:43;2.20;81.80
66928;DHT22;59882;45.624;11.698;2023-12-22T02:42:10;2.20;82.00
66928;DHT22;59882;45.624;11.698;2023-12-22T02:44:35;2.30;82.00
66928;DHT22;59882;45.624;11.698;2023-12-22T02:47:02;2.30;81.90
66928;DHT22;59882;45.624;11.698;2023-12-22T02:49:27;2.30;81.90
66928;DHT22;59882;45.624;11.698;2023-12-22T02:51:53;2.30;82.00
66928;DHT22;59882;45.624;11.698;2023-12-22T02:54:18;2.30;82.10
66928;DHT22;59882;45.624;11.698;2023-12-22T02:56:49;2.30;82.10
66928;DHT22;59882;45.624;11.698;2023-12-22T02:59:14;2.40;82.20
66928;DHT22;59882;45.624;11.698;2023-12-22T03:01:40;2.40;82.20
66928;DHT22;59882;45.624;11.698;2023-12-22T03:04:05;2.40;82.00
66928;DHT22;59882;45.624;11.698;2023-12-22T03:06:31;2.40;82.10
66928;DHT22;59882;45.624;11.698;2023-12-22T03:08:56;2.40;82.20
66928;DHT22;59882;45.624;11.698;2023-12-22T03:11:22;2.30;82.20
66928;DHT22;59882;45.624;11.698;2023-12-22T03:13:47;2.30;82.10
66928;DHT22;59882;45.624;11.698;2023-12-22T03:16:13;2.40;82.10
66928;DHT22;59882;45.624;11.698;2023-12-22T03:18:39;2.40;82.10
66928;DHT22;59882;45.624;11.698;2023-12-22T03:21:05;2.40;82.10
66928;DHT22;59882;45.624;11.698;2023-12-22T03:23:30;2.40;82.30
66928;DHT22;59882;45.624;11.698;2023-12-22T03:25:56;2.40;82.30
66928;DHT22;59882;45.624;11.698;2023-12-22T03:28:21;2.40;82.30
66928;DHT22;59882;45.624;11.698;2023-12-22T03:30:47;2.30;82.30
66928;DHT22;59882;45.624;11.698;2023-12-22T03:33:13;2.40;82.40
66928;DHT22;59882;45.624;11.698;2023-12-22T03:35:38;2.30;82.40
66928;DHT22;59882;45.624;11.698;2023-12-22T03:38:04;2.40;82.40
66928;DHT22;59882;45.624;11.698;2023-12-22T03:40:29;2.30;82.40
66928;DHT22;59882;45.624;11.698;2023-12-22T03:42:55;2.30;82.50
66928;DHT22;59882;45.624;11.698;2023-12-22T03:45:21;2.30;82.50
66928;DHT22;59882;45.624;11.698;2023-12-22T03:47:47;2.30;82.60
66928;DHT22;59882;45.624;11.698;2023-12-22T03:50:13;2.30;82.80
66928;DHT22;59882;45.624;11.698;2023-12-22T03:52:38;2.30;82.80
66928;DHT22;59882;45.624;11.698;2023-12-22T03:55:04;2.30;82.80
66928;DHT22;59882;45.624;11.698;2023-12-22T03:57:30;2.30;82.80
66928;DHT22;59882;45.624;11.698;2023-12-22T03:59:56;2.30;83.00
66928;DHT22;59882;45.624;11.698;2023-12-22T04:02:21;2.20;83.00
66928;DHT22;59882;45.624;11.698;2023-12-22T04:04:47;2.30;82.90
66928;DHT22;59882;45.624;11.698;2023-12-22T04:07:13;2.30;82.90
66928;DHT22;59882;45.624;11.698;2023-12-22T04:09:38;2.30;83.00
66928;DHT22;59882;45.624;11.698;2023-12-22T04:12:05;2.30;82.90
66928;DHT22;59882;45.624;11.698;2023-12-22T04:14:30;2.30;82.90
66928;DHT22;59882;45.624;11.698;2023-12-22T04:16:56;2.30;82.90
66928;DHT22;59882;45.624;11.698;2023-12-22T04:19:22;2.30;82.90
66928;DHT22;59882;45.624;11.698;2023-12-22T04:21:48;2.30;82.90
66928;DHT22;59882;45.624;11.698;2023-12-22T04:24:14;2.30;83.00
66928;DHT22;59882;45.624;11.698;2023-12-22T04:26:39;2.40;82.90
66928;DHT22;59882;45.624;11.698;2023-12-22T04:29:05;2.40;82.80
66928;DHT22;59882;45.624;11.698;2023-12-22T04:31:31;2.40;82.70
66928;DHT22;59882;45.624;11.698;2023-12-22T04:33:56;2.40;82.60
66928;DHT22;59882;45.624;11.698;2023-12-22T04:36:22;2.30;82.60
66928;DHT22;59882;45.624;11.698;2023-12-22T04:38:47;2.30;82.60
66928;DHT22;59882;45.624;11.698;2023-12-22T04:41:13;2.30;82.70
66928;DHT22;59882;45.624;11.698;2023-12-22T04:43:39;2.30;82.80
66928;DHT22;59882;45.624;11.698;2023-12-22T04:46:04;2.30;82.70
66928;DHT22;59882;45.624;11.698;2023-12-22T04:48:30;2.30;82.70
66928;DHT22;59882;45.624;11.698;2023-12-22T04:50:56;2.30;82.90
66928;DHT22;59882;45.624;11.698;2023-12-22T04:53:22;2.30;83.00
66928;DHT22;59882;45.624;11.698;2023-12-22T04:55:47;2.30;82.90
66928;DHT22;59882;45.624;11.698;2023-12-22T04:58:13;2.30;83.00
66928;DHT22;59882;45.624;11.698;2023-12-22T05:00:38;2.30;82.90
66928;DHT22;59882;45.624;11.698;2023-12-22T05:03:04;2.30;83.00
66928;DHT22;59882;45.624;11.698;2023-12-22T05:05:30;2.30;82.90
66928;DHT22;59882;45.624;11.698;2023-12-22T05:07:55;2.30;83.00
66928;DHT22;59882;45.624;11.698;2023-12-22T05:10:21;2.30;83.00
66928;DHT22;59882;45.624;11.698;2023-12-22T05:12:46;2.30;83.00
66928;DHT22;59882;45.624;11.698;2023-12-22T05:15:12;2.30;82.90
66928;DHT22;59882;45.624;11.698;2023-12-22T05:17:38;2.30;82.80
66928;DHT22;59882;45.624;11.698;2023-12-22T05:20:06;2.30;82.80
66928;DHT22;59882;45.624;11.698;2023-12-22T05:22:32;2.30;82.80
66928;DHT22;59882;45.624;11.698;2023-12-22T05:24:58;2.30;82.70
66928;DHT22;59882;45.624;11.698;2023-12-22T05:27:26;2.30;82.70
66928;DHT22;59882;45.624;11.698;2023-12-22T05:29:52;2.30;82.60
66928;DHT22;59882;45.624;11.698;2023-12-22T05:32:17;2.30;82.70
66928;DHT22;59882;45.624;11.698;2023-12-22T05:34:43;2.30;82.60
66928;DHT22;59882;45.624;11.698;2023-12-22T05:37:09;2.30;82.60
66928;DHT22;59882;45.624;11.698;2023-12-22T05:39:34;2.30;82.60
66928;DHT22;59882;45.624;11.698;2023-12-22T05:42:00;2.20;82.60
66928;DHT22;59882;45.624;11.698;2023-12-22T05:44:25;2.20;82.70
66928;DHT22;59882;45.624;11.698;2023-12-22T05:46:55;2.10;82.70
66928;DHT22;59882;45.624;11.698;2023-12-22T05:49:20;2.00;82.70
66928;DHT22;59882;45.624;11.698;2023-12-22T05:51:47;2.00;82.70
66928;DHT22;59882;45.624;11.698;2023-12-22T05:54:12;2.00;82.70
66928;DHT22;59882;45.624;11.698;2023-12-22T05:56:38;1.90;82.70
66928;DHT22;59882;45.624;11.698;2023-12-22T05:59:04;1.90;82.70
66928;DHT22;59882;45.624;11.698;2023-12-22T06:01:29;1.90;82.70
66928;DHT22;59882;45.624;11.698;2023-12-22T06:03:55;1.90;82.50
66928;DHT22;59882;45.624;11.698;2023-12-22T06:06:21;1.90;82.70
66928;DHT22;59882;45.624;11.698;2023-12-22T06:08:47;1.90;82.60
66928;DHT22;59882;45.624;11.698;2023-12-22T06:11:13;1.90;82.70
66928;DHT22;59882;45.624;11.698;2023-12-22T06:13:39;1.90;82.60
66928;DHT22;59882;45.624;11.698;2023-12-22T06:16:04;1.90;82.60
66928;DHT22;59882;45.624;11.698;2023-12-22T06:18:30;1.90;82.50
66928;DHT22;59882;45.624;11.698;2023-12-22T06:20:56;1.80;82.50
66928;DHT22;59882;45.624;11.698;2023-12-22T06:23:21;1.80;82.60
66928;DHT22;59882;45.624;11.698;2023-12-22T06:25:47;1.80;82.60
66928;DHT22;59882;45.624;11.698;2023-12-22T06:28:13;1.80;82.70
66928;DHT22;59882;45.624;11.698;2023-12-22T06:30:42;1.80;82.80
66928;DHT22;59882;45.624;11.698;2023-12-22T06:33:08;1.80;82.90
66928;DHT22;59882;45.624;11.698;2023-12-22T06:35:34;1.80;83.00
66928;DHT22;59882;45.624;11.698;2023-12-22T06:37:59;1.70;83.20
66928;DHT22;59882;45.624;11.698;2023-12-22T06:40:29;1.70;83.20
66928;DHT22;59882;45.624;11.698;2023-12-22T06:42:54;1.70;83.40
66928;DHT22;59882;45.624;11.698;2023-12-22T06:45:20;1.70;83.50
66928;DHT22;59882;45.624;11.698;2023-12-22T06:47:46;1.70;83.50
66928;DHT22;59882;45.624;11.698;2023-12-22T06:50:11;1.70;83.50
66928;DHT22;59882;45.624;11.698;2023-12-22T06:52:37;1.70;83.60
66928;DHT22;59882;45.624;11.698;2023-12-22T06:55:02;1.70;83.70
66928;DHT22;59882;45.624;11.698;2023-12-22T06:57:28;1.70;83.70
66928;DHT22;59882;45.624;11.698;2023-12-22T06:59:53;1.70;83.70
66928;DHT22;59882;45.624;11.698;2023-12-22T07:02:19;1.70;83.80
66928;DHT22;59882;45.624;11.698;2023-12-22T07:07:49;1.70;83.70
66928;DHT22;59882;45.624;11.698;2023-12-22T07:10:16;1.80;83.80
66928;DHT22;59882;45.624;11.698;2023-12-22T07:12:41;1.70;83.80
66928;DHT22;59882;45.624;11.698;2023-12-22T07:15:07;1.70;83.80
66928;DHT22;59882;45.624;11.698;2023-12-22T07:17:34;1.70;83.90
66928;DHT22;59882;45.624;11.698;2023-12-22T07:19:59;1.60;84.10
66928;DHT22;59882;45.624;11.698;2023-12-22T07:22:25;1.60;83.80
66928;DHT22;59882;45.624;11.698;2023-12-22T07:24:50;1.60;83.80
66928;DHT22;59882;45.624;11.698;2023-12-22T07:27:18;1.60;84.20
66928;DHT22;59882;45.624;11.698;2023-12-22T07:29:43;1.60;84.10
66928;DHT22;59882;45.624;11.698;2023-12-22T07:32:09;1.60;84.10
66928;DHT22;59882;45.624;11.698;2023-12-22T07:34:35;1.50;84.10
66928;DHT22;59882;45.624;11.698;2023-12-22T07:37:01;1.60;84.10
66928;DHT22;59882;45.624;11.698;2023-12-22T07:39:26;1.60;84.10
66928;DHT22;59882;45.624;11.698;2023-12-22T07:41:52;1.60;84.30
66928;DHT22;59882;45.624;11.698;2023-12-22T07:44:17;1.60;84.30
66928;DHT22;59882;45.624;11.698;2023-12-22T07:46:43;1.70;84.30
66928;DHT22;59882;45.624;11.698;2023-12-22T07:49:08;1.70;84.20
66928;DHT22;59882;45.624;11.698;2023-12-22T07:51:34;1.80;84.20
66928;DHT22;59882;45.624;11.698;2023-12-22T07:54:00;1.80;84.10
66928;DHT22;59882;45.624;11.698;2023-12-22T07:56:25;1.90;84.00
66928;DHT22;59882;45.624;11.698;2023-12-22T07:58:51;1.90;84.10
66928;DHT22;59882;45.624;11.698;2023-12-22T08:01:16;1.90;84.10
66928;DHT22;59882;45.624;11.698;2023-12-22T08:03:42;2.00;83.90
66928;DHT22;59882;45.624;11.698;2023-12-22T08:06:08;2.00;83.90
66928;DHT22;59882;45.624;11.698;2023-12-22T08:08:33;2.00;83.90
66928;DHT22;59882;45.624;11.698;2023-12-22T08:11:00;2.00;84.00
66928;DHT22;59882;45.624;11.698;2023-12-22T08:13:25;2.10;84.00
66928;DHT22;59882;45.624;11.698;2023-12-22T08:15:51;2.10;84.00
66928;DHT22;59882;45.624;11.698;2023-12-22T08:18:17;2.20;84.00
66928;DHT22;59882;45.624;11.698;2023-12-22T08:20:42;2.30;83.70
66928;DHT22;59882;45.624;11.698;2023-12-22T08:23:08;2.30;83.90
66928;DHT22;59882;45.624;11.698;2023-12-22T08:25:34;2.30;84.00
66928;DHT22;59882;45.624;11.698;2023-12-22T08:27:59;2.40;84.00
66928;DHT22;59882;45.624;11.698;2023-12-22T08:30:26;2.40;83.80
66928;DHT22;59882;45.624;11.698;2023-12-22T08:32:51;2.50;83.80
66928;DHT22;59882;45.624;11.698;2023-12-22T08:35:17;2.60;83.90
66928;DHT22;59882;45.624;11.698;2023-12-22T08:37:43;2.60;83.80
66928;DHT22;59882;45.624;11.698;2023-12-22T08:40:08;2.70;83.70
66928;DHT22;59882;45.624;11.698;2023-12-22T08:42:34;2.80;83.70
66928;DHT22;59882;45.624;11.698;2023-12-22T08:45:00;2.80;83.60
66928;DHT22;59882;45.624;11.698;2023-12-22T08:47:25;2.90;83.60
66928;DHT22;59882;45.624;11.698;2023-12-22T08:49:51;3.00;83.50
66928;DHT22;59882;45.624;11.698;2023-12-22T08:52:17;3.00;83.40
66928;DHT22;59882;45.624;11.698;2023-12-22T08:54:42;3.10;83.40
66928;DHT22;59882;45.624;11.698;2023-12-22T08:57:08;3.20;83.40
66928;DHT22;59882;45.624;11.698;2023-12-22T08:59:34;3.30;83.30
66928;DHT22;59882;45.624;11.698;2023-12-22T09:02:00;3.30;83.20
66928;DHT22;59882;45.624;11.698;2023-12-22T09:04:25;3.40;83.40
66928;DHT22;59882;45.624;11.698;2023-12-22T09:06:51;3.50;83.80
66928;DHT22;59882;45.624;11.698;2023-12-22T09:09:17;3.70;83.50
66928;DHT22;59882;45.624;11.698;2023-12-22T09:11:43;3.80;83.60
66928;DHT22;59882;45.624;11.698;2023-12-22T09:14:08;3.90;83.40
66928;DHT22;59882;45.624;11.698;2023-12-22T09:16:35;3.90;83.20
66928;DHT22;59882;45.624;11.698;2023-12-22T09:19:01;4.10;83.00
66928;DHT22;59882;45.624;11.698;2023-12-22T09:21:27;4.10;82.80
66928;DHT22;59882;45.624;11.698;2023-12-22T09:23:52;4.20;82.80
66928;DHT22;59882;45.624;11.698;2023-12-22T09:26:18;4.30;82.70
66928;DHT22;59882;45.624;11.698;2023-12-22T09:28:44;4.40;82.60
66928;DHT22;59882;45.624;11.698;2023-12-22T09:31:11;4.40;82.60
66928;DHT22;59882;45.624;11.698;2023-12-22T09:33:40;4.60;82.50
66928;DHT22;59882;45.624;11.698;2023-12-22T09:36:07;4.70;82.60
66928;DHT22;59882;45.624;11.698;2023-12-22T09:38:32;4.80;82.40
66928;DHT22;59882;45.624;11.698;2023-12-22T09:40:58;4.80;82.20
66928;DHT22;59882;45.624;11.698;2023-12-22T09:43:25;5.00;81.60
66928;DHT22;59882;45.624;11.698;2023-12-22T09:45:51;5.10;81.60
66928;DHT22;59882;45.624;11.698;2023-12-22T09:48:18;5.20;81.30
66928;DHT22;59882;45.624;11.698;2023-12-22T09:50:46;5.30;81.40
66928;DHT22;59882;45.624;11.698;2023-12-22T09:53:13;5.30;81.10
66928;DHT22;59882;45.624;11.698;2023-12-22T09:55:44;5.40;81.00
66928;DHT22;59882;45.624;11.698;2023-12-22T09:58:12;5.50;80.70
66928;DHT22;59882;45.624;11.698;2023-12-22T10:00:39;5.50;80.60
66928;DHT22;59882;45.624;11.698;2023-12-22T10:03:11;5.70;80.20
66928;DHT22;59882;45.624;11.698;2023-12-22T10:05:38;5.80;80.30
66928;DHT22;59882;45.624;11.698;2023-12-22T10:08:04;5.80;80.00
66928;DHT22;59882;45.624;11.698;2023-12-22T10:10:32;5.90;79.80
66928;DHT22;59882;45.624;11.698;2023-12-22T10:12:59;6.00;78.90
66928;DHT22;59882;45.624;11.698;2023-12-22T10:15:27;6.10;79.30
66928;DHT22;59882;45.624;11.698;2023-12-22T10:17:53;6.20;78.40
66928;DHT22;59882;45.624;11.698;2023-12-22T10:20:19;6.30;78.50
66928;DHT22;59882;45.624;11.698;2023-12-22T10:22:45;6.40;78.60
66928;DHT22;59882;45.624;11.698;2023-12-22T10:25:14;6.40;78.40
66928;DHT22;59882;45.624;11.698;2023-12-22T10:27:42;6.50;78.30
66928;DHT22;59882;45.624;11.698;2023-12-22T10:30:09;6.60;78.10
66928;DHT22;59882;45.624;11.698;2023-12-22T10:32:42;6.60;78.00
66928;DHT22;59882;45.624;11.698;2023-12-22T10:35:08;6.70;77.80
66928;DHT22;59882;45.624;11.698;2023-12-22T10:37:34;6.80;77.00
66928;DHT22;59882;45.624;11.698;2023-12-22T10:40:00;6.80;77.20
66928;DHT22;59882;45.624;11.698;2023-12-22T10:42:26;6.80;77.10
66928;DHT22;59882;45.624;11.698;2023-12-22T10:44:51;6.90;77.00
66928;DHT22;59882;45.624;11.698;2023-12-22T10:47:18;7.00;76.30
66928;DHT22;59882;45.624;11.698;2023-12-22T10:49:46;7.10;76.70
66928;DHT22;59882;45.624;11.698;2023-12-22T10:52:18;7.20;76.90
66928;DHT22;59882;45.624;11.698;2023-12-22T10:54:46;7.20;75.80
66928;DHT22;59882;45.624;11.698;2023-12-22T10:57:11;7.30;75.40
66928;DHT22;59882;45.624;11.698;2023-12-22T10:59:44;7.30;75.80
66928;DHT22;59882;45.624;11.698;2023-12-22T11:02:18;7.40;75.70
66928;DHT22;59882;45.624;11.698;2023-12-22T11:05:02;7.50;75.90
66928;DHT22;59882;45.624;11.698;2023-12-22T11:07:33;7.60;75.60
66928;DHT22;59882;45.624;11.698;2023-12-22T11:10:04;7.80;75.10
66928;DHT22;59882;45.624;11.698;2023-12-22T11:12:35;7.90;74.80
66928;DHT22;59882;45.624;11.698;2023-12-22T11:15:02;7.90;74.90
66928;DHT22;59882;45.624;11.698;2023-12-22T11:17:29;8.00;74.30
66928;DHT22;59882;45.624;11.698;2023-12-22T11:19:56;8.10;74.50
66928;DHT22;59882;45.624;11.698;2023-12-22T11:22:22;8.10;74.30
66928;DHT22;59882;45.624;11.698;2023-12-22T11:24:49;8.20;74.30
66928;DHT22;59882;45.624;11.698;2023-12-22T11:27:18;8.30;74.20
66928;DHT22;59882;45.624;11.698;2023-12-22T11:29:48;8.40;73.10
66928;DHT22;59882;45.624;11.698;2023-12-22T11:32:18;8.50;73.10
66928;DHT22;59882;45.624;11.698;2023-12-22T11:34:45;8.50;73.00
66928;DHT22;59882;45.624;11.698;2023-12-22T11:37:12;8.60;73.00
66928;DHT22;59882;45.624;11.698;2023-12-22T11:39:42;8.70;73.00
66928;DHT22;59882;45.624;11.698;2023-12-22T11:42:29;8.70;73.20
66928;DHT22;59882;45.624;11.698;2023-12-22T11:44:57;8.80;72.60
66928;DHT22;59882;45.624;11.698;2023-12-22T11:47:23;8.90;72.70
66928;DHT22;59882;45.624;11.698;2023-12-22T11:49:49;8.90;72.90
66928;DHT22;59882;45.624;11.698;2023-12-22T11:52:18;9.10;71.70
66928;DHT22;59882;45.624;11.698;2023-12-22T11:54:52;9.20;71.80
66928;DHT22;59882;45.624;11.698;2023-12-22T12:02:54;9.50;69.90
66928;DHT22;59882;45.624;11.698;2023-12-22T12:05:20;9.70;68.90
66928;DHT22;59882;45.624;11.698;2023-12-22T12:07:47;10.40;68.30
66928;DHT22;59882;45.624;11.698;2023-12-22T12:10:51;12.30;70.10
66928;DHT22;59882;45.624;11.698;2023-12-22T12:13:22;15.20;61.70
66928;DHT22;59882;45.624;11.698;2023-12-22T12:15:50;17.70;49.60
66928;DHT22;59882;45.624;11.698;2023-12-22T12:18:22;19.90;48.10
66928;DHT22;59882;45.624;11.698;2023-12-22T12:20:48;21.90;47.10
66928;DHT22;59882;45.624;11.698;2023-12-22T12:23:15;23.50;39.60
66928;DHT22;59882;45.624;11.698;2023-12-22T12:25:42;25.00;37.30
66928;DHT22;59882;45.624;11.698;2023-12-22T12:28:08;26.20;32.90
66928;DHT22;59882;45.624;11.698;2023-12-22T12:30:35;27.10;29.80
66928;DHT22;59882;45.624;11.698;2023-12-22T12:33:12;27.90;32.00
66928;DHT22;59882;45.624;11.698;2023-12-22T12:35:39;28.50;29.80
66928;DHT22;59882;45.624;11.698;2023-12-22T12:38:04;29.10;27.00
66928;DHT22;59882;45.624;11.698;2023-12-22T12:40:31;29.70;26.20
66928;DHT22;59882;45.624;11.698;2023-12-22T12:43:01;30.20;25.30
66928;DHT22;59882;45.624;11.698;2023-12-22T12:45:28;30.80;24.10
66928;DHT22;59882;45.624;11.698;2023-12-22T12:47:57;31.10;25.30
66928;DHT22;59882;45.624;11.698;2023-12-22T12:50:26;31.30;22.90
66928;DHT22;59882;45.624;11.698;2023-12-22T12:52:52;31.60;24.00
66928;DHT22;59882;45.624;11.698;2023-12-22T12:55:22;31.90;22.60
66928;DHT22;59882;45.624;11.698;2023-12-22T12:57:51;32.00;23.40
66928;DHT22;59882;45.624;11.698;2023-12-22T13:00:28;32.00;21.90
66928;DHT22;59882;45.624;11.698;2023-12-22T13:03:00;32.00;22.00
66928;DHT22;59882;45.624;11.698;2023-12-22T13:05:28;32.00;22.10
66928;DHT22;59882;45.624;11.698;2023-12-22T13:08:12;31.90;22.90
66928;DHT22;59882;45.624;11.698;2023-12-22T13:10:38;31.80;23.60
66928;DHT22;59882;45.624;11.698;2023-12-22T13:13:05;31.70;24.20
66928;DHT22;59882;45.624;11.698;2023-12-22T13:15:31;31.50;22.60
66928;DHT22;59882;45.624;11.698;2023-12-22T13:17:57;31.40;23.70
66928;DHT22;59882;45.624;11.698;2023-12-22T13:20:23;31.10;24.50
66928;DHT22;59882;45.624;11.698;2023-12-22T13:22:49;30.60;24.70
66928;DHT22;59882;45.624;11.698;2023-12-22T13:25:15;30.20;25.10
66928;DHT22;59882;45.624;11.698;2023-12-22T13:27:50;29.80;24.50
66928;DHT22;59882;45.624;11.698;2023-12-22T13:30:35;29.20;24.60
66928;DHT22;59882;45.624;11.698;2023-12-22T13:33:07;28.20;26.90
66928;DHT22;59882;45.624;11.698;2023-12-22T13:35:33;27.10;27.30
66928;DHT22;59882;45.624;11.698;2023-12-22T13:38:05;26.00;29.00
66928;DHT22;59882;45.624;11.698;2023-12-22T13:40:31;25.40;29.10
66928;DHT22;59882;45.624;11.698;2023-12-22T13:42:58;24.90;30.10
66928;DHT22;59882;45.624;11.698;2023-12-22T13:45:26;24.30;30.20
66928;DHT22;59882;45.624;11.698;2023-12-22T13:47:52;23.50;30.70
66928;DHT22;59882;45.624;11.698;2023-12-22T13:50:18;22.40;32.40
66928;DHT22;59882;45.624;11.698;2023-12-22T13:52:44;21.60;34.00
66928;DHT22;59882;45.624;11.698;2023-12-22T13:55:14;20.60;35.40
66928;DHT22;59882;45.624;11.698;2023-12-22T13:57:41;20.00;36.70
66928;DHT22;59882;45.624;11.698;2023-12-22T14:02:45;19.00;38.90
66928;DHT22;59882;45.624;11.698;2023-12-22T14:05:11;18.50;39.90
66928;DHT22;59882;45.624;11.698;2023-12-22T14:07:37;17.90;40.60
66928;DHT22;59882;45.624;11.698;2023-12-22T14:10:06;17.20;42.80
66928;DHT22;59882;45.624;11.698;2023-12-22T14:12:32;16.60;43.10
66928;DHT22;59882;45.624;11.698;2023-12-22T14:14:58;16.10;44.40
66928;DHT22;59882;45.624;11.698;2023-12-22T14:17:24;15.70;45.50
66928;DHT22;59882;45.624;11.698;2023-12-22T14:19:50;15.30;46.70
66928;DHT22;59882;45.624;11.698;2023-12-22T14:22:15;14.90;47.10
66928;DHT22;59882;45.624;11.698;2023-12-22T14:24:42;14.50;49.00
66928;DHT22;59882;45.624;11.698;2023-12-22T14:27:08;14.30;49.10
66928;DHT22;59882;45.624;11.698;2023-12-22T14:29:34;13.90;50.60
66928;DHT22;59882;45.624;11.698;2023-12-22T14:32:02;13.60;51.50
66928;DHT22;59882;45.624;11.698;2023-12-22T14:34:27;13.40;51.70
66928;DHT22;59882;45.624;11.698;2023-12-22T14:36:53;13.20;52.40
66928;DHT22;59882;45.624;11.698;2023-12-22T14:39:19;13.00;52.30
66928;DHT22;59882;45.624;11.698;2023-12-22T14:41:44;12.80;53.10
66928;DHT22;59882;45.624;11.698;2023-12-22T14:44:12;12.60;54.30
66928;DHT22;59882;45.624;11.698;2023-12-22T14:46:38;12.40;55.60
66928;DHT22;59882;45.624;11.698;2023-12-22T14:49:05;12.30;55.30
66928;DHT22;59882;45.624;11.698;2023-12-22T14:51:35;12.10;55.60
66928;DHT22;59882;45.624;11.698;2023-12-22T14:54:01;11.90;57.60
66928;DHT22;59882;45.624;11.698;2023-12-22T14:56:27;11.80;58.00
66928;DHT22;59882;45.624;11.698;2023-12-22T14:58:52;11.70;58.60
66928;DHT22;59882;45.624;11.698;2023-12-22T15:01:18;11.50;57.90
66928;DHT22;59882;45.624;11.698;2023-12-22T15:03:43;11.40;58.20
66928;DHT22;59882;45.624;11.698;2023-12-22T15:06:09;11.30;59.70
66928;DHT22;59882;45.624;11.698;2023-12-22T15:08:35;11.10;59.40
66928;DHT22;59882;45.624;11.698;2023-12-22T15:11:00;11.10;60.00
66928;DHT22;59882;45.624;11.698;2023-12-22T15:13:26;10.90;60.10
66928;DHT22;59882;45.624;11.698;2023-12-22T15:15:52;10.90;60.80
66928;DHT22;59882;45.624;11.698;2023-12-22T15:18:17;10.80;61.30
66928;DHT22;59882;45.624;11.698;2023-12-22T15:20:43;10.70;63.30
66928;DHT22;59882;45.624;11.698;2023-12-22T15:23:09;10.50;63.30
66928;DHT22;59882;45.624;11.698;2023-12-22T15:25:34;10.40;62.50
66928;DHT22;59882;45.624;11.698;2023-12-22T15:28:01;10.30;62.90
66928;DHT22;59882;45.624;11.698;2023-12-22T15:30:26;10.20;62.80
66928;DHT22;59882;45.624;11.698;2023-12-22T15:32:53;10.10;64.20
66928;DHT22;59882;45.624;11.698;2023-12-22T15:35:19;10.00;63.50
66928;DHT22;59882;45.624;11.698;2023-12-22T15:37:45;9.90;64.10